Airport View

Enter AWOS ICAO identifier for current METAR.

ex. KFNL

KJFZ 202230Z AUTO 00000KT 10SM CLR 21/13 A3025 RMK AO2 T02050132

20 Oct 2020 22:37

Frequency: 118.075

Phone: 276-596-9927

Other Area AWOS: KMKJ - KVJI - KBLF - KI16

TAF KBLF 201731Z 2018/2118 25004KT P6SM SCT035 FM210600 18004KT P6SM BKN250 FM211300 23005KT P6SM FEW250